createdAt,value
2023-03-12T00:01:59.756Z,74.40
2023-03-12T00:04:26.917Z,74.99
2023-03-12T00:06:53.479Z,74.73
2023-03-12T00:09:20.000Z,74.77
2023-03-12T00:11:46.453Z,75.58
2023-03-12T00:14:12.888Z,75.52
2023-03-12T00:16:39.340Z,75.84
2023-03-12T00:19:05.844Z,75.84
2023-03-12T00:21:32.271Z,75.61
2023-03-12T00:23:58.752Z,76.10
2023-03-12T00:26:25.223Z,75.50
2023-03-12T00:28:51.798Z,75.91
2023-03-12T00:31:19.799Z,75.80
2023-03-12T00:33:46.360Z,75.11
2023-03-12T00:36:12.792Z,75.53
2023-03-12T00:38:39.272Z,74.37
2023-03-12T00:41:05.710Z,73.45
2023-03-12T00:43:32.175Z,74.40
2023-03-12T00:45:58.618Z,74.13
2023-03-12T00:48:25.375Z,74.09
2023-03-12T00:50:51.802Z,73.70
2023-03-12T00:53:18.269Z,73.51
2023-03-12T00:55:44.783Z,73.22
2023-03-12T00:58:11.195Z,73.05
2023-03-12T01:00:37.676Z,72.93
2023-03-12T01:03:04.195Z,73.47
2023-03-12T01:05:32.975Z,72.88
2023-03-12T01:08:01.228Z,72.68
2023-03-12T01:10:27.674Z,72.86
2023-03-12T01:12:54.122Z,71.86
2023-03-12T01:15:20.638Z,72.04
2023-03-12T01:17:47.137Z,72.48
2023-03-12T01:20:13.768Z,72.72
2023-03-12T01:22:40.168Z,72.43
2023-03-12T01:25:07.202Z,71.83
2023-03-12T01:27:33.649Z,71.73
2023-03-12T01:30:00.401Z,72.13
2023-03-12T01:32:27.015Z,72.20
2023-03-12T01:34:53.570Z,71.70
2023-03-12T01:37:20.003Z,71.30
2023-03-12T01:39:46.542Z,71.64
2023-03-12T01:42:12.979Z,72.00
2023-03-12T01:45:08.899Z,71.93
2023-03-12T01:47:35.346Z,72.20
2023-03-12T01:50:03.403Z,72.48
2023-03-12T01:52:32.306Z,72.34
2023-03-12T01:55:01.741Z,72.40
2023-03-12T01:57:40.409Z,72.85
2023-03-12T02:00:13.074Z,72.39
2023-03-12T02:02:40.026Z,72.49
2023-03-12T02:05:09.310Z,73.20
2023-03-12T02:07:35.758Z,72.66
2023-03-12T02:10:03.464Z,72.67
2023-03-12T02:12:29.992Z,73.28
2023-03-12T02:14:56.480Z,73.12
2023-03-12T02:17:23.037Z,73.59
2023-03-12T02:20:08.362Z,73.60
2023-03-12T02:22:39.177Z,73.66
2023-03-12T02:25:17.586Z,73.67
2023-03-12T02:27:44.183Z,74.04
2023-03-12T02:30:10.983Z,74.24
2023-03-12T02:32:39.539Z,74.30
2023-03-12T02:35:06.449Z,73.94
2023-03-12T02:37:32.945Z,74.16
2023-03-12T02:40:08.667Z,74.67
2023-03-12T02:42:35.367Z,74.47
2023-03-12T02:45:03.065Z,74.71
2023-03-12T02:47:29.568Z,74.45
2023-03-12T02:49:56.044Z,74.27
2023-03-12T02:52:22.518Z,74.68
2023-03-12T02:55:07.611Z,74.53
2023-03-12T02:57:37.543Z,74.32
2023-03-12T03:00:11.958Z,74.07
2023-03-12T03:02:39.154Z,74.14
2023-03-12T03:05:05.766Z,73.64
2023-03-12T03:07:32.258Z,73.84
2023-03-12T03:10:04.087Z,73.97
2023-03-12T03:12:34.186Z,73.68
2023-03-12T03:15:01.034Z,73.78
2023-03-12T03:17:27.946Z,73.09
2023-03-12T03:19:54.391Z,73.48
2023-03-12T03:22:21.580Z,73.36
2023-03-12T03:24:48.039Z,73.70
2023-03-12T03:27:14.915Z,73.98
2023-03-12T03:29:41.574Z,73.25
2023-03-12T03:32:08.026Z,73.31
2023-03-12T03:34:34.534Z,73.39
2023-03-12T03:37:01.022Z,73.46
2023-03-12T03:39:28.891Z,73.96
2023-03-12T03:41:55.336Z,74.30
2023-03-12T03:44:23.242Z,73.65
2023-03-12T03:46:49.916Z,73.61
2023-03-12T03:49:16.860Z,73.63
2023-03-12T03:51:43.395Z,73.69
2023-03-12T03:54:10.088Z,73.88
2023-03-12T03:56:36.581Z,73.79
2023-03-12T03:59:04.146Z,73.56
2023-03-12T04:01:31.479Z,73.70
2023-03-12T04:03:58.503Z,73.63
2023-03-12T04:06:25.416Z,73.85
2023-03-12T04:08:51.933Z,74.08
2023-03-12T04:11:19.769Z,74.46
2023-03-12T04:13:46.513Z,73.89
2023-03-12T04:16:13.885Z,73.49
2023-03-12T04:18:42.236Z,73.50
2023-03-12T04:21:09.841Z,73.72
2023-03-12T04:23:37.048Z,74.00
2023-03-12T04:26:04.112Z,73.98
2023-03-12T04:28:30.639Z,74.32
2023-03-12T04:31:01.112Z,74.11
2023-03-12T04:33:28.588Z,73.96
2023-03-12T04:35:55.447Z,74.62
2023-03-12T04:38:22.571Z,74.37
2023-03-12T04:40:57.598Z,74.17
2023-03-12T04:43:24.068Z,74.11
2023-03-12T04:45:50.726Z,74.67
2023-03-12T04:48:17.161Z,74.42
2023-03-12T04:50:44.658Z,74.62
2023-03-12T04:53:11.246Z,74.01
2023-03-12T04:55:37.679Z,74.57
2023-03-12T04:58:04.231Z,74.65
2023-03-12T05:00:30.752Z,74.43
2023-03-12T05:02:57.271Z,74.31
2023-03-12T05:05:23.925Z,74.84
2023-03-12T05:07:50.375Z,74.67
2023-03-12T05:10:16.824Z,74.79
2023-03-12T05:12:43.316Z,74.54
2023-03-12T05:15:10.056Z,74.46
2023-03-12T05:17:36.489Z,74.66
2023-03-12T05:20:05.160Z,74.67
2023-03-12T05:22:31.832Z,75.01
2023-03-12T05:24:58.258Z,74.46
2023-03-12T05:27:26.163Z,74.60
2023-03-12T05:29:53.152Z,74.34
2023-03-12T05:32:19.618Z,74.35
2023-03-12T05:34:46.156Z,74.24
2023-03-12T05:37:12.616Z,73.93
2023-03-12T05:39:39.534Z,74.20
2023-03-12T05:42:06.198Z,73.36
2023-03-12T05:44:34.822Z,73.83
2023-03-12T05:47:01.292Z,73.72
2023-03-12T05:49:27.714Z,73.36
2023-03-12T05:51:54.186Z,73.14
2023-03-12T05:54:20.676Z,72.73
2023-03-12T05:56:47.145Z,72.71
2023-03-12T05:59:13.762Z,72.91
2023-03-12T06:01:40.538Z,72.41
2023-03-12T06:04:07.174Z,72.99
2023-03-12T06:06:34.650Z,72.89
2023-03-12T06:09:01.228Z,72.70
2023-03-12T06:11:27.710Z,72.75
2023-03-12T06:13:54.192Z,72.74
2023-03-12T06:16:21.669Z,72.55
2023-03-12T06:18:48.220Z,72.30
2023-03-12T06:21:19.019Z,72.19
2023-03-12T06:23:46.251Z,72.91
2023-03-12T06:26:13.135Z,72.54
2023-03-12T06:28:40.164Z,72.52
2023-03-12T06:31:07.097Z,72.55
2023-03-12T06:33:34.127Z,72.92
2023-03-12T06:36:01.725Z,72.74
2023-03-12T06:38:28.711Z,72.83
2023-03-12T06:41:00.194Z,72.44
2023-03-12T06:43:27.757Z,72.71
2023-03-12T06:45:54.949Z,72.84
2023-03-12T06:48:21.880Z,72.22
2023-03-12T06:50:48.539Z,71.92
2023-03-12T06:53:14.975Z,72.29
2023-03-12T06:55:41.401Z,72.04
2023-03-12T06:58:07.895Z,71.70
2023-03-12T07:00:34.871Z,71.80
2023-03-12T07:03:01.737Z,71.21
2023-03-12T07:05:30.072Z,71.66
2023-03-12T07:07:57.858Z,71.15
2023-03-12T07:10:24.352Z,70.29
2023-03-12T07:12:50.953Z,69.32
2023-03-12T07:15:17.418Z,69.88
2023-03-12T07:17:43.855Z,69.49
2023-03-12T07:20:10.736Z,68.59
2023-03-12T07:22:37.197Z,68.70
2023-03-12T07:25:04.729Z,68.90
2023-03-12T07:27:31.193Z,67.80
2023-03-12T07:29:57.637Z,68.32
2023-03-12T07:32:24.105Z,67.23
2023-03-12T07:34:50.576Z,66.69
2023-03-12T07:37:17.052Z,66.72
2023-03-12T07:39:44.537Z,66.86
2023-03-12T07:42:12.850Z,66.46
2023-03-12T07:44:39.447Z,65.75
2023-03-12T07:47:22.313Z,66.05
2023-03-12T07:49:49.625Z,65.96
2023-03-12T07:52:18.077Z,65.21
2023-03-12T07:54:44.704Z,65.57
2023-03-12T07:57:11.349Z,65.98
2023-03-12T07:59:38.005Z,65.77
2023-03-12T08:02:04.557Z,65.12
2023-03-12T08:04:31.227Z,65.30
2023-03-12T08:06:58.285Z,65.70
2023-03-12T08:09:25.504Z,65.29
2023-03-12T08:11:52.048Z,65.74
2023-03-12T08:14:18.609Z,66.03
2023-03-12T08:16:45.147Z,65.36
2023-03-12T08:19:11.849Z,65.18
2023-03-12T08:21:38.318Z,65.59
2023-03-12T08:24:04.855Z,64.96
2023-03-12T08:26:31.382Z,65.45
2023-03-12T08:29:00.210Z,64.13
2023-03-12T08:31:27.498Z,64.40
2023-03-12T08:33:54.035Z,64.44
2023-03-12T08:36:22.391Z,64.03
2023-03-12T08:38:49.104Z,65.27
2023-03-12T08:41:15.566Z,64.85
2023-03-12T08:43:42.059Z,64.64
2023-03-12T08:46:11.033Z,64.31
2023-03-12T08:48:38.835Z,64.40
2023-03-12T08:51:07.484Z,63.42
2023-03-12T08:53:34.765Z,63.98
2023-03-12T08:56:02.084Z,63.43
2023-03-12T08:58:28.539Z,63.18
2023-03-12T09:00:55.808Z,64.16
2023-03-12T09:03:22.540Z,63.29
2023-03-12T09:05:49.588Z,63.50
2023-03-12T09:08:16.609Z,63.44
2023-03-12T09:10:48.092Z,62.11
2023-03-12T09:13:14.622Z,62.92
2023-03-12T09:15:41.057Z,64.13
2023-03-12T09:18:07.512Z,63.06
2023-03-12T09:20:33.971Z,63.12
2023-03-12T09:23:00.430Z,61.44
2023-03-12T09:25:26.965Z,62.64
2023-03-12T09:27:53.484Z,63.64
2023-03-12T09:30:20.941Z,62.88
2023-03-12T09:32:47.424Z,62.36
2023-03-12T09:35:15.050Z,62.44
2023-03-12T09:37:41.545Z,60.27
2023-03-12T09:40:10.574Z,61.87
2023-03-12T09:42:47.934Z,61.20
2023-03-12T09:45:21.307Z,59.90
2023-03-12T09:47:50.387Z,61.48
2023-03-12T09:50:20.159Z,60.67
2023-03-12T09:52:51.088Z,61.64
2023-03-12T09:55:19.823Z,59.79
2023-03-12T09:57:48.114Z,60.56
2023-03-12T10:00:16.436Z,60.60
2023-03-12T10:02:48.408Z,59.38
2023-03-12T10:05:23.764Z,58.57
2023-03-12T10:08:23.138Z,57.44
2023-03-12T10:10:54.975Z,57.83
2023-03-12T10:13:24.442Z,56.50
2023-03-12T10:15:57.643Z,57.40
2023-03-12T10:18:43.215Z,57.61
2023-03-12T10:21:24.925Z,57.53
2023-03-12T10:23:51.378Z,56.76
2023-03-12T10:26:26.675Z,57.50
2023-03-12T10:28:59.099Z,55.39
2023-03-12T10:31:36.420Z,56.32
2023-03-12T10:34:09.317Z,57.37
2023-03-12T10:36:38.440Z,56.90
2023-03-12T10:39:06.879Z,56.08
2023-03-12T10:41:34.886Z,54.42
2023-03-12T10:44:03.966Z,54.41
2023-03-12T10:46:39.027Z,53.90
2023-03-12T10:49:34.959Z,53.93
2023-03-12T10:52:03.097Z,55.28
2023-03-12T10:54:30.948Z,55.63
2023-03-12T10:56:57.607Z,54.48
2023-03-12T10:59:27.433Z,54.62
2023-03-12T11:01:53.954Z,54.16
2023-03-12T11:04:31.012Z,55.41
2023-03-12T11:07:12.500Z,54.08
2023-03-12T11:09:38.952Z,53.90
2023-03-12T11:12:25.749Z,54.33
2023-03-12T11:14:52.420Z,55.12
2023-03-12T11:17:26.083Z,53.28
2023-03-12T11:19:52.969Z,52.89
2023-03-12T11:22:32.984Z,53.80
2023-03-12T11:25:06.060Z,53.95
2023-03-12T11:27:38.208Z,53.84
2023-03-12T11:30:07.341Z,53.01
2023-03-12T11:32:38.785Z,53.10
2023-03-12T11:35:09.943Z,51.91
2023-03-12T11:37:41.344Z,53.50
2023-03-12T11:40:17.318Z,53.72
2023-03-12T11:42:46.592Z,51.50
2023-03-12T11:45:16.172Z,50.11
2023-03-12T11:48:01.250Z,52.71
2023-03-12T11:50:35.327Z,51.07
2023-03-12T11:53:07.663Z,50.69
2023-03-12T11:55:37.135Z,51.14
2023-03-12T11:58:22.405Z,51.04
2023-03-12T12:00:51.955Z,51.80
2023-03-12T12:03:28.076Z,50.73
2023-03-12T12:05:54.582Z,50.16
2023-03-12T12:08:32.315Z,49.94
2023-03-12T12:11:15.417Z,48.70
2023-03-12T12:13:41.859Z,47.94
2023-03-12T12:16:08.327Z,48.28
2023-03-12T12:18:36.027Z,47.58
2023-03-12T12:21:08.054Z,47.91
2023-03-12T12:23:44.157Z,48.16
2023-03-12T12:26:19.596Z,47.90
2023-03-12T12:28:45.998Z,47.97
2023-03-12T12:31:20.785Z,47.59
2023-03-12T12:33:53.426Z,47.93
2023-03-12T12:36:19.910Z,48.79
2023-03-12T12:39:09.441Z,48.58
2023-03-12T12:41:37.308Z,44.87
2023-03-12T12:44:11.333Z,46.24
2023-03-12T12:46:39.866Z,46.66
2023-03-12T12:49:14.836Z,44.94
2023-03-12T12:51:47.387Z,44.28
2023-03-12T12:54:23.413Z,46.44
2023-03-12T12:56:49.926Z,47.13
2023-03-12T12:59:21.605Z,46.74
2023-03-12T13:01:48.597Z,46.02
2023-03-12T13:04:23.493Z,46.06
2023-03-12T13:06:55.957Z,47.72
2023-03-12T13:09:23.450Z,44.56
2023-03-12T13:11:51.627Z,45.25
2023-03-12T13:14:20.628Z,43.95
2023-03-12T13:16:47.685Z,45.49
2023-03-12T13:19:14.130Z,43.21
2023-03-12T13:21:41.800Z,44.72
2023-03-12T13:24:23.289Z,43.43
2023-03-12T13:26:58.706Z,43.80
2023-03-12T13:29:36.054Z,44.72
2023-03-12T13:32:02.999Z,44.52
2023-03-12T13:34:31.532Z,45.12
2023-03-12T13:36:59.761Z,41.04
2023-03-12T13:39:32.122Z,41.53
2023-03-12T13:42:00.593Z,43.58
2023-03-12T13:44:27.046Z,43.66
2023-03-12T13:46:59.543Z,41.14
2023-03-12T13:49:27.316Z,40.78
2023-03-12T13:51:55.729Z,43.39
2023-03-12T13:54:25.464Z,43.51
2023-03-12T13:57:03.317Z,40.90
2023-03-12T13:59:30.170Z,39.12
2023-03-12T14:02:02.339Z,40.37
2023-03-12T14:04:40.876Z,39.96
2023-03-12T14:07:13.195Z,40.58
2023-03-12T14:10:07.025Z,39.64
2023-03-12T14:12:40.527Z,41.86
2023-03-12T14:15:07.006Z,42.01
2023-03-12T14:17:34.588Z,42.18
2023-03-12T14:20:10.606Z,42.75
2023-03-12T14:22:38.717Z,42.07
2023-03-12T14:25:13.145Z,40.71
2023-03-12T14:27:40.207Z,42.72
2023-03-12T14:30:33.155Z,41.36
2023-03-12T14:33:02.422Z,40.48
2023-03-12T14:35:41.725Z,41.53
2023-03-12T14:38:11.182Z,42.11
2023-03-12T14:40:37.691Z,41.17
2023-03-12T14:43:18.661Z,40.89
2023-03-12T14:45:45.126Z,41.90
2023-03-12T14:48:12.175Z,41.58
2023-03-12T14:50:40.447Z,41.82
2023-03-12T14:53:12.145Z,42.43
2023-03-12T14:55:38.663Z,41.73
2023-03-12T14:58:07.052Z,40.80
2023-03-12T15:00:33.740Z,41.89
2023-03-12T15:03:03.309Z,41.89
2023-03-12T15:05:29.974Z,40.98
2023-03-12T15:08:00.875Z,41.37
2023-03-12T15:10:28.644Z,42.01
2023-03-12T15:12:57.481Z,42.61
2023-03-12T15:15:36.143Z,39.98
2023-03-12T15:18:13.228Z,42.07
2023-03-12T15:20:40.382Z,40.90
2023-03-12T15:23:07.664Z,42.40
2023-03-12T15:25:34.993Z,42.77
2023-03-12T15:28:10.623Z,43.66
2023-03-12T15:30:38.146Z,44.50
2023-03-12T15:33:10.744Z,44.17
2023-03-12T15:35:39.079Z,45.35
2023-03-12T15:38:06.113Z,45.32
2023-03-12T15:40:32.696Z,45.44
2023-03-12T15:43:03.213Z,46.16
2023-03-12T15:45:34.942Z,47.06
2023-03-12T15:48:02.767Z,47.56
2023-03-12T15:50:41.344Z,47.62
2023-03-12T15:53:25.779Z,47.95
2023-03-12T15:56:01.527Z,48.77
2023-03-12T15:58:28.533Z,49.62
2023-03-12T16:00:54.998Z,49.93
2023-03-12T16:03:22.398Z,50.11
2023-03-12T16:05:49.917Z,50.47
2023-03-12T16:08:20.663Z,50.91
2023-03-12T16:10:48.147Z,50.84
2023-03-12T16:13:16.035Z,51.36
2023-03-12T16:15:42.483Z,51.70
2023-03-12T16:18:12.806Z,51.93
2023-03-12T16:20:39.317Z,52.35
2023-03-12T16:23:05.788Z,51.58
2023-03-12T16:25:32.562Z,52.91
2023-03-12T16:28:01.397Z,54.32
2023-03-12T16:30:32.260Z,54.53
2023-03-12T16:33:00.266Z,54.44
2023-03-12T16:35:28.322Z,55.13
2023-03-12T16:37:55.747Z,55.77
2023-03-12T16:40:32.828Z,56.16
2023-03-12T16:43:03.381Z,56.06
2023-03-12T16:45:30.763Z,56.26
2023-03-12T16:48:01.864Z,56.72
2023-03-12T16:50:28.641Z,56.83
2023-03-12T16:52:55.559Z,57.38
2023-03-12T16:55:23.605Z,57.06
2023-03-12T16:57:52.204Z,57.39
2023-03-12T17:00:25.877Z,57.67
2023-03-12T17:02:57.726Z,57.96
2023-03-12T17:05:28.379Z,58.03
2023-03-12T17:07:55.106Z,58.55
2023-03-12T17:10:22.349Z,58.26
2023-03-12T17:12:48.988Z,58.65
2023-03-12T17:15:18.716Z,58.61
2023-03-12T17:17:45.235Z,59.47
2023-03-12T17:20:13.980Z,59.12
2023-03-12T17:22:40.944Z,58.64
2023-03-12T17:25:08.055Z,59.51
2023-03-12T17:27:34.789Z,59.35
2023-03-12T17:30:01.246Z,59.51
2023-03-12T17:32:30.006Z,60.05
2023-03-12T17:34:57.723Z,60.23
2023-03-12T17:37:24.146Z,60.26
2023-03-12T17:39:50.657Z,59.73
2023-03-12T17:42:17.141Z,60.70
2023-03-12T17:44:43.562Z,61.11
2023-03-12T17:47:10.032Z,60.88
2023-03-12T17:49:36.519Z,61.05
2023-03-12T17:52:03.307Z,60.86
2023-03-12T17:54:30.190Z,61.02
2023-03-12T17:56:56.651Z,61.33
2023-03-12T17:59:23.136Z,61.22
2023-03-12T18:01:49.627Z,61.65
2023-03-12T18:04:16.263Z,61.92
2023-03-12T18:06:42.805Z,61.93
2023-03-12T18:09:09.255Z,61.83
2023-03-12T18:11:35.704Z,61.79
2023-03-12T18:14:02.166Z,62.51
2023-03-12T18:16:28.823Z,62.41
2023-03-12T18:18:55.319Z,62.03
2023-03-12T18:21:21.825Z,62.99
2023-03-12T18:23:48.300Z,62.54
2023-03-12T18:26:14.776Z,62.95
2023-03-12T18:28:41.220Z,62.50
2023-03-12T18:31:09.172Z,62.74
2023-03-12T18:33:36.435Z,63.33
2023-03-12T18:36:03.935Z,62.94
2023-03-12T18:38:33.225Z,63.55
2023-03-12T18:41:06.681Z,63.28
2023-03-12T18:43:33.569Z,63.43
2023-03-12T18:46:00.086Z,63.49
2023-03-12T18:48:26.808Z,63.86
2023-03-12T18:50:53.627Z,63.35
2023-03-12T18:53:20.435Z,63.91
2023-03-12T18:55:51.252Z,63.64
2023-03-12T18:58:17.717Z,63.92
2023-03-12T19:00:44.214Z,64.22
2023-03-12T19:03:10.699Z,64.21
2023-03-12T19:05:37.190Z,64.08
2023-03-12T19:08:04.100Z,63.99
2023-03-12T19:10:30.571Z,64.47
2023-03-12T19:12:57.076Z,64.83
2023-03-12T19:15:26.507Z,64.74
2023-03-12T19:17:54.080Z,64.39
2023-03-12T19:20:20.776Z,64.80
2023-03-12T19:22:47.282Z,64.59
2023-03-12T19:25:14.367Z,64.50
2023-03-12T19:27:40.812Z,65.01
2023-03-12T19:30:07.752Z,64.37
2023-03-12T19:32:43.327Z,65.07
2023-03-12T19:35:11.987Z,64.99
2023-03-12T19:37:38.610Z,65.28
2023-03-12T19:40:08.368Z,65.21
2023-03-12T19:42:35.022Z,65.38
2023-03-12T19:45:01.474Z,65.40
2023-03-12T19:47:28.283Z,65.62
2023-03-12T19:49:54.798Z,65.55
2023-03-12T19:52:21.273Z,65.23
2023-03-12T19:55:01.610Z,65.50
2023-03-12T19:57:30.777Z,65.67
2023-03-12T19:59:57.286Z,66.20
2023-03-12T20:02:23.904Z,66.00
2023-03-12T20:04:50.408Z,65.89
2023-03-12T20:07:18.530Z,65.82
2023-03-12T20:09:45.083Z,66.06
2023-03-12T20:12:11.604Z,66.28
2023-03-12T20:14:38.433Z,66.43
2023-03-12T20:17:05.383Z,66.66
2023-03-12T20:19:32.748Z,67.05
2023-03-12T20:21:59.203Z,66.84
2023-03-12T20:24:25.761Z,67.13
2023-03-12T20:26:52.232Z,67.44
2023-03-12T20:29:18.722Z,66.93
2023-03-12T20:31:45.288Z,66.79
2023-03-12T20:34:11.789Z,67.13
2023-03-12T20:36:38.260Z,67.64
2023-03-12T20:39:04.868Z,67.85
2023-03-12T20:41:31.491Z,67.97
2023-03-12T20:43:57.988Z,67.92
2023-03-12T20:46:24.696Z,68.07
2023-03-12T20:48:51.242Z,68.16
2023-03-12T20:51:17.877Z,68.43
2023-03-12T20:53:44.468Z,68.38
2023-03-12T20:56:11.601Z,68.57
2023-03-12T20:58:38.101Z,68.81
2023-03-12T21:01:05.670Z,68.48
2023-03-12T21:03:32.611Z,69.05
2023-03-12T21:06:00.149Z,68.79
2023-03-12T21:08:26.952Z,68.73
2023-03-12T21:10:53.478Z,69.24
2023-03-12T21:13:20.723Z,69.38
2023-03-12T21:15:47.659Z,69.20
2023-03-12T21:18:14.190Z,69.79
2023-03-12T21:20:41.543Z,69.93
2023-03-12T21:23:08.643Z,69.73
2023-03-12T21:25:39.429Z,70.15
2023-03-12T21:28:06.769Z,70.72
2023-03-12T21:30:33.669Z,70.47
2023-03-12T21:33:01.186Z,70.72
2023-03-12T21:35:27.971Z,70.85
2023-03-12T21:37:57.089Z,70.65
2023-03-12T21:40:23.882Z,70.62
2023-03-12T21:42:50.594Z,70.68
2023-03-12T21:45:17.127Z,70.89
2023-03-12T21:47:43.577Z,70.68
2023-03-12T21:50:10.554Z,70.91
2023-03-12T21:52:43.099Z,70.89
2023-03-12T21:55:09.992Z,71.07
2023-03-12T21:57:36.478Z,70.89
2023-03-12T22:00:04.061Z,71.07
2023-03-12T22:02:31.634Z,71.05
2023-03-12T22:05:01.182Z,71.38
2023-03-12T22:07:30.494Z,71.34
2023-03-12T22:09:57.301Z,71.28
2023-03-12T22:12:23.781Z,71.22
2023-03-12T22:14:50.363Z,71.46
2023-03-12T22:17:17.346Z,71.53
2023-03-12T22:19:43.942Z,72.14
2023-03-12T22:22:10.420Z,72.04
2023-03-12T22:24:37.522Z,72.63
2023-03-12T22:27:06.568Z,73.35
2023-03-12T22:29:33.519Z,73.30
2023-03-12T22:32:00.131Z,73.75
2023-03-12T22:34:26.675Z,73.38
2023-03-12T22:36:53.176Z,73.30
2023-03-12T22:39:19.611Z,73.32
2023-03-12T22:41:50.445Z,72.90
2023-03-12T22:44:16.899Z,72.90
2023-03-12T22:46:43.343Z,72.81
2023-03-12T22:49:09.834Z,72.82
2023-03-12T22:51:36.304Z,73.38
2023-03-12T22:54:02.762Z,73.73
2023-03-12T22:56:29.222Z,73.50
2023-03-12T22:58:55.971Z,73.57
2023-03-12T23:01:22.962Z,74.62
2023-03-12T23:03:49.979Z,74.06
2023-03-12T23:06:17.995Z,74.11
2023-03-12T23:08:47.481Z,73.79
2023-03-12T23:11:14.491Z,73.87
2023-03-12T23:13:42.425Z,73.46
2023-03-12T23:16:10.491Z,73.35
2023-03-12T23:18:37.132Z,74.08
2023-03-12T23:21:05.457Z,73.76
2023-03-12T23:23:32.408Z,75.23
2023-03-12T23:25:59.561Z,74.38
2023-03-12T23:28:26.979Z,74.56
2023-03-12T23:30:57.789Z,75.18
2023-03-12T23:33:25.011Z,75.26
2023-03-12T23:35:59.098Z,75.12
2023-03-12T23:38:26.320Z,76.00
2023-03-12T23:40:52.957Z,75.37
2023-03-12T23:43:19.490Z,75.39
2023-03-12T23:45:45.986Z,75.14
2023-03-12T23:48:12.498Z,75.47
2023-03-12T23:50:39.037Z,75.47
2023-03-12T23:53:05.473Z,75.31
2023-03-12T23:55:31.969Z,75.05
2023-03-12T23:57:58.433Z,75.00
